createdAt,value
2017-09-30T00:00:48.597Z,0.00
2017-09-30T00:01:48.586Z,0.00
2017-09-30T00:02:48.571Z,0.00
2017-09-30T00:03:48.710Z,0.00
2017-09-30T00:04:48.549Z,0.00
2017-09-30T00:05:48.538Z,0.00
2017-09-30T00:06:48.524Z,0.00
2017-09-30T00:07:48.513Z,0.00
2017-09-30T00:08:48.501Z,0.00
2017-09-30T00:09:48.693Z,0.00
2017-09-30T00:10:48.476Z,0.00
2017-09-30T00:11:48.465Z,0.00
2017-09-30T00:12:48.454Z,0.00
2017-09-30T00:13:48.442Z,0.00
2017-09-30T00:14:48.429Z,0.00
2017-09-30T00:15:48.617Z,0.00
2017-09-30T00:16:48.406Z,0.00
2017-09-30T00:17:48.393Z,0.00
2017-09-30T00:18:48.380Z,0.00
2017-09-30T00:19:48.369Z,0.00
2017-09-30T00:20:48.356Z,0.00
2017-09-30T00:21:48.544Z,0.00
2017-09-30T00:22:48.333Z,0.00
2017-09-30T00:23:48.319Z,0.00
2017-09-30T00:24:48.308Z,0.00
2017-09-30T00:25:48.296Z,0.00
2017-09-30T00:26:48.283Z,0.00
2017-09-30T00:27:48.421Z,0.00
2017-09-30T00:28:48.260Z,0.00
2017-09-30T00:29:48.249Z,0.00
2017-09-30T00:30:48.234Z,0.00
2017-09-30T00:31:48.223Z,0.00
2017-09-30T00:32:48.213Z,0.00
2017-09-30T00:33:48.350Z,0.00
2017-09-30T00:34:48.385Z,0.00
2017-09-30T00:35:48.173Z,0.00
2017-09-30T00:36:48.163Z,0.00
2017-09-30T00:37:48.151Z,0.00
2017-09-30T00:38:48.140Z,0.00
2017-09-30T00:39:48.127Z,0.00
2017-09-30T00:40:48.264Z,0.00
2017-09-30T00:41:48.102Z,0.00
2017-09-30T00:42:48.090Z,0.00
2017-09-30T00:43:48.078Z,0.00
2017-09-30T00:44:48.067Z,0.00
2017-09-30T00:45:48.053Z,0.00
2017-09-30T00:46:48.189Z,0.00
2017-09-30T00:47:48.028Z,0.00
2017-09-30T00:48:48.017Z,0.00
2017-09-30T00:49:48.005Z,0.00
2017-09-30T00:50:47.992Z,0.00
2017-09-30T00:51:47.979Z,0.00
2017-09-30T00:52:48.123Z,0.00
2017-09-30T00:53:47.955Z,0.00
2017-09-30T00:54:47.943Z,0.00
2017-09-30T00:55:47.930Z,0.00
2017-09-30T00:56:47.919Z,0.00
2017-09-30T00:57:47.906Z,0.00
2017-09-30T00:58:48.044Z,0.00
2017-09-30T00:59:47.882Z,0.00
2017-09-30T01:00:47.870Z,0.00
2017-09-30T01:01:47.858Z,0.00
2017-09-30T01:02:47.846Z,0.00
2017-09-30T01:03:47.833Z,0.00
2017-09-30T01:04:48.022Z,0.00
2017-09-30T01:05:47.808Z,0.00
2017-09-30T01:06:47.795Z,0.00
2017-09-30T01:07:47.783Z,0.00
2017-09-30T01:08:47.771Z,0.00
2017-09-30T01:09:47.760Z,0.00
2017-09-30T01:10:47.895Z,0.00
2017-09-30T01:11:47.734Z,0.00
2017-09-30T01:12:47.722Z,0.00
2017-09-30T01:13:47.710Z,0.00
2017-09-30T01:14:47.697Z,0.00
2017-09-30T01:15:47.687Z,0.00
2017-09-30T01:16:47.822Z,0.00
2017-09-30T01:17:47.660Z,0.00
2017-09-30T01:18:47.647Z,0.00
2017-09-30T01:19:47.638Z,0.00
2017-09-30T01:20:47.623Z,0.00
2017-09-30T01:21:47.611Z,0.00
2017-09-30T01:22:47.748Z,0.00
2017-09-30T01:23:47.586Z,0.00
2017-09-30T01:24:47.573Z,0.00
2017-09-30T01:25:47.560Z,0.00
2017-09-30T01:26:47.548Z,0.00
2017-09-30T01:27:47.537Z,0.00
2017-09-30T01:28:47.675Z,0.00
2017-09-30T01:29:47.511Z,0.00
2017-09-30T01:30:47.498Z,0.00
2017-09-30T01:31:47.486Z,0.00
2017-09-30T01:32:47.473Z,0.00
2017-09-30T01:33:47.460Z,0.00
2017-09-30T01:34:47.596Z,0.00
2017-09-30T01:35:47.435Z,0.00
2017-09-30T01:36:47.421Z,0.00
2017-09-30T01:37:47.411Z,0.00
2017-09-30T01:38:47.396Z,0.00
2017-09-30T01:39:47.387Z,0.00
2017-09-30T01:40:47.521Z,0.00
2017-09-30T01:41:47.361Z,0.00
2017-09-30T01:42:47.348Z,0.00
2017-09-30T01:43:47.334Z,0.00
2017-09-30T01:44:47.473Z,0.00
2017-09-30T01:45:47.311Z,0.00
2017-09-30T01:46:47.448Z,0.00
2017-09-30T01:47:47.286Z,0.00
2017-09-30T01:48:47.273Z,0.00
2017-09-30T01:49:47.265Z,0.00
2017-09-30T01:50:47.448Z,0.00
2017-09-30T01:51:47.235Z,0.00
2017-09-30T01:52:47.372Z,0.00
2017-09-30T01:53:47.362Z,0.00
2017-09-30T01:54:47.198Z,0.00
2017-09-30T01:55:47.189Z,0.00
2017-09-30T01:56:47.173Z,0.00
2017-09-30T01:57:47.161Z,0.00
2017-09-30T01:58:47.148Z,0.00
2017-09-30T01:59:47.286Z,0.00
2017-09-30T02:00:47.123Z,0.00
2017-09-30T02:01:47.111Z,0.00
2017-09-30T02:02:47.098Z,0.00
2017-09-30T02:03:47.085Z,0.00
2017-09-30T02:04:47.072Z,0.00
2017-09-30T02:05:47.211Z,0.00
2017-09-30T02:06:47.047Z,0.00
2017-09-30T02:07:47.033Z,0.00
2017-09-30T02:08:47.023Z,0.00
2017-09-30T02:09:47.008Z,0.00
2017-09-30T02:10:46.997Z,0.00
2017-09-30T02:11:47.185Z,0.00
2017-09-30T02:12:46.973Z,0.00
2017-09-30T02:13:46.962Z,0.00
2017-09-30T02:14:46.947Z,0.00
2017-09-30T02:15:46.935Z,0.00
2017-09-30T02:16:46.923Z,0.00
2017-09-30T02:17:47.061Z,0.00
2017-09-30T02:18:46.897Z,0.00
2017-09-30T02:19:46.886Z,0.00
2017-09-30T02:20:46.871Z,0.00
2017-09-30T02:21:46.861Z,0.00
2017-09-30T02:22:46.846Z,0.00
2017-09-30T02:23:46.984Z,0.00
2017-09-30T02:24:46.822Z,0.00
2017-09-30T02:25:46.809Z,0.00
2017-09-30T02:26:46.797Z,0.00
2017-09-30T02:27:46.784Z,0.00
2017-09-30T02:28:46.771Z,0.00
2017-09-30T02:29:46.961Z,0.00
2017-09-30T02:30:46.748Z,0.00
2017-09-30T02:31:46.732Z,0.00
2017-09-30T02:32:46.872Z,0.00
2017-09-30T02:33:46.708Z,0.00
2017-09-30T02:34:46.695Z,0.00
2017-09-30T02:35:49.836Z,0.00
2017-09-30T02:36:46.670Z,0.00
2017-09-30T02:37:46.658Z,0.00
2017-09-30T02:38:46.651Z,0.00
2017-09-30T02:39:46.637Z,0.00
2017-09-30T02:40:46.620Z,0.00
2017-09-30T02:41:46.759Z,0.00
2017-09-30T02:42:46.595Z,0.00
2017-09-30T02:43:46.583Z,0.00
2017-09-30T02:44:46.570Z,0.00
2017-09-30T02:45:46.558Z,0.00
2017-09-30T02:46:46.545Z,0.00
2017-09-30T02:47:46.683Z,0.00
2017-09-30T02:48:46.521Z,0.00
2017-09-30T02:49:46.508Z,0.00
2017-09-30T02:50:46.494Z,0.00
2017-09-30T02:51:46.484Z,0.00
2017-09-30T02:52:46.470Z,0.00
2017-09-30T02:53:46.606Z,0.00
2017-09-30T02:54:46.468Z,0.00
2017-09-30T02:55:46.581Z,0.00
2017-09-30T02:56:46.418Z,0.00
2017-09-30T02:57:46.405Z,0.00
2017-09-30T02:58:46.390Z,0.00
2017-09-30T02:59:46.527Z,0.00
2017-09-30T03:00:46.365Z,0.00
2017-09-30T03:01:46.354Z,0.00
2017-09-30T03:02:46.342Z,0.00
2017-09-30T03:03:46.335Z,0.00
2017-09-30T03:04:46.315Z,0.00
2017-09-30T03:05:46.454Z,0.00
2017-09-30T03:06:46.289Z,0.00
2017-09-30T03:07:46.276Z,0.00
2017-09-30T03:08:46.264Z,0.00
2017-09-30T03:09:46.252Z,0.00
2017-09-30T03:10:46.239Z,0.00
2017-09-30T03:11:46.376Z,0.00
2017-09-30T03:12:46.213Z,0.00
2017-09-30T03:13:46.200Z,0.00
2017-09-30T03:14:46.187Z,0.00
2017-09-30T03:15:46.175Z,0.00
2017-09-30T03:16:46.162Z,0.00
2017-09-30T03:17:46.301Z,0.00
2017-09-30T03:18:46.135Z,0.00
2017-09-30T03:19:46.124Z,0.00
2017-09-30T03:20:46.113Z,0.00
2017-09-30T03:21:46.100Z,0.00
2017-09-30T03:22:46.086Z,0.00
2017-09-30T03:23:46.225Z,0.00
2017-09-30T03:24:46.061Z,0.00
2017-09-30T03:25:46.050Z,0.00
2017-09-30T03:26:46.034Z,0.00
2017-09-30T03:27:46.226Z,0.00
2017-09-30T03:28:46.012Z,0.00
2017-09-30T03:29:46.149Z,0.00
2017-09-30T03:30:45.986Z,0.00
2017-09-30T03:31:45.975Z,0.00
2017-09-30T03:32:45.960Z,0.00
2017-09-30T03:33:45.949Z,0.00
2017-09-30T03:34:45.937Z,0.00
2017-09-30T03:35:46.074Z,0.00
2017-09-30T03:36:46.061Z,0.00
2017-09-30T03:37:45.898Z,0.00
2017-09-30T03:38:45.885Z,0.00
2017-09-30T03:39:45.872Z,0.00
2017-09-30T03:40:45.859Z,0.00
2017-09-30T03:41:45.997Z,0.00
2017-09-30T03:42:45.834Z,0.00
2017-09-30T03:43:45.824Z,0.00
2017-09-30T03:44:45.807Z,0.00
2017-09-30T03:45:45.796Z,0.00
2017-09-30T03:46:45.782Z,0.00
2017-09-30T03:47:45.920Z,0.00
2017-09-30T03:48:45.756Z,0.00
2017-09-30T03:49:45.744Z,0.00
2017-09-30T03:50:45.731Z,0.00
2017-09-30T03:51:45.718Z,0.00
2017-09-30T03:52:45.707Z,0.00
2017-09-30T03:53:45.843Z,0.00
2017-09-30T03:54:45.680Z,0.00
2017-09-30T03:55:45.668Z,0.00
2017-09-30T03:56:45.656Z,0.00
2017-09-30T03:57:45.642Z,0.00
2017-09-30T03:58:45.629Z,0.00
2017-09-30T03:59:45.817Z,0.00
2017-09-30T04:00:45.605Z,0.00
2017-09-30T04:01:45.592Z,0.00
2017-09-30T04:02:45.578Z,0.00
2017-09-30T04:03:45.566Z,0.00
2017-09-30T04:04:45.553Z,0.00
2017-09-30T04:05:45.691Z,0.00
2017-09-30T04:06:45.526Z,0.00
2017-09-30T04:07:45.516Z,0.00
2017-09-30T04:08:45.504Z,0.00
2017-09-30T04:09:45.491Z,0.00
2017-09-30T04:10:45.478Z,0.00
2017-09-30T04:11:45.617Z,0.00
2017-09-30T04:12:45.453Z,0.00
2017-09-30T04:13:45.440Z,0.00
2017-09-30T04:14:45.429Z,0.00
2017-09-30T04:15:45.421Z,0.00
2017-09-30T04:16:45.403Z,0.00
2017-09-30T04:17:45.541Z,0.00
2017-09-30T04:18:45.380Z,0.00
2017-09-30T04:19:45.367Z,0.00
2017-09-30T04:20:45.356Z,0.00
2017-09-30T04:21:45.344Z,0.00
2017-09-30T04:22:45.329Z,0.00
2017-09-30T04:23:45.467Z,0.00
2017-09-30T04:24:45.305Z,0.00
2017-09-30T04:25:45.293Z,0.00
2017-09-30T04:26:45.279Z,0.00
2017-09-30T04:27:45.269Z,0.00
2017-09-30T04:28:45.257Z,0.00
2017-09-30T04:29:45.395Z,0.00
2017-09-30T04:30:45.233Z,0.00
2017-09-30T04:31:45.219Z,0.00
2017-09-30T04:32:45.207Z,0.00
2017-09-30T04:33:45.347Z,0.00
2017-09-30T04:34:45.185Z,0.00
2017-09-30T04:35:45.330Z,0.00
2017-09-30T04:36:45.159Z,0.00
2017-09-30T04:37:45.154Z,0.00
2017-09-30T04:38:45.136Z,0.00
2017-09-30T04:39:45.122Z,0.00
2017-09-30T04:40:45.109Z,0.00
2017-09-30T04:41:45.247Z,0.00
2017-09-30T04:42:45.084Z,0.00
2017-09-30T04:43:45.072Z,0.00
2017-09-30T04:44:45.061Z,0.00
2017-09-30T04:45:45.049Z,0.00
2017-09-30T04:46:45.034Z,0.00
2017-09-30T04:47:45.174Z,0.00
2017-09-30T04:48:45.012Z,0.00
2017-09-30T04:49:44.999Z,0.00
2017-09-30T04:50:44.987Z,0.00
2017-09-30T04:51:44.976Z,0.00
2017-09-30T04:52:44.962Z,0.00
2017-09-30T04:53:45.099Z,0.00
2017-09-30T04:54:44.939Z,0.00
2017-09-30T04:55:44.928Z,0.00
2017-09-30T04:56:44.914Z,0.00
2017-09-30T04:57:44.901Z,0.00
2017-09-30T04:58:44.888Z,0.00
2017-09-30T04:59:45.026Z,0.00
2017-09-30T05:00:44.862Z,0.00
2017-09-30T05:01:44.851Z,0.00
2017-09-30T05:02:44.839Z,0.00
2017-09-30T05:03:44.827Z,0.00
2017-09-30T05:04:44.814Z,0.00
2017-09-30T05:05:44.952Z,0.00
2017-09-30T05:06:44.790Z,0.00
2017-09-30T05:07:44.781Z,0.00
2017-09-30T05:08:44.765Z,0.00
2017-09-30T05:09:44.751Z,0.00
2017-09-30T05:10:44.740Z,0.00
2017-09-30T05:11:44.878Z,0.00
2017-09-30T05:12:44.714Z,0.00
2017-09-30T05:13:44.703Z,0.00
2017-09-30T05:14:44.691Z,0.00
2017-09-30T05:15:44.678Z,0.00
2017-09-30T05:16:44.664Z,0.00
2017-09-30T05:17:44.804Z,0.00
2017-09-30T05:18:44.642Z,0.00
2017-09-30T05:19:44.628Z,0.00
2017-09-30T05:20:44.626Z,0.00
2017-09-30T05:21:44.605Z,0.00
2017-09-30T05:22:44.590Z,0.00
2017-09-30T05:23:44.829Z,0.00
2017-09-30T05:24:44.566Z,0.00
2017-09-30T05:25:44.554Z,5.63
2017-09-30T05:26:44.542Z,5.63
2017-09-30T05:27:44.530Z,5.63
2017-09-30T05:28:44.517Z,5.63
2017-09-30T05:29:44.655Z,5.63
2017-09-30T05:30:44.492Z,5.63
2017-09-30T05:31:44.481Z,5.63
2017-09-30T05:32:44.468Z,5.63
2017-09-30T05:33:44.462Z,5.63
2017-09-30T05:34:44.444Z,5.63
2017-09-30T05:35:44.581Z,5.63
2017-09-30T05:36:44.421Z,11.25
2017-09-30T05:37:44.407Z,11.25
2017-09-30T05:38:44.394Z,11.25
2017-09-30T05:39:44.382Z,11.25
2017-09-30T05:40:44.370Z,11.25
2017-09-30T05:41:44.508Z,11.25
2017-09-30T05:42:44.347Z,11.25
2017-09-30T05:43:44.333Z,11.25
2017-09-30T05:44:44.321Z,11.25
2017-09-30T05:45:44.312Z,16.88
2017-09-30T05:46:44.294Z,16.88
2017-09-30T05:47:44.434Z,16.88
2017-09-30T05:48:44.272Z,16.88
2017-09-30T05:49:44.262Z,16.88
2017-09-30T05:50:44.244Z,16.88
2017-09-30T05:51:44.234Z,22.50
2017-09-30T05:52:44.229Z,22.50
2017-09-30T05:53:44.360Z,22.50
2017-09-30T05:54:44.197Z,28.13
2017-09-30T05:55:44.186Z,28.13
2017-09-30T05:56:44.173Z,28.13
2017-09-30T05:57:44.161Z,33.75
2017-09-30T05:58:44.150Z,33.75
2017-09-30T05:59:44.288Z,33.75
2017-09-30T06:00:44.125Z,33.75
2017-09-30T06:01:44.113Z,33.75
2017-09-30T06:02:44.101Z,39.38
2017-09-30T06:03:44.094Z,39.38
2017-09-30T06:04:44.078Z,39.38
2017-09-30T06:05:44.216Z,39.38
2017-09-30T06:06:44.052Z,39.38
2017-09-30T06:07:44.041Z,39.38
2017-09-30T06:08:44.031Z,33.75
2017-09-30T06:09:44.018Z,33.75
2017-09-30T06:10:44.005Z,33.75
2017-09-30T06:11:44.151Z,33.75
2017-09-30T06:12:44.131Z,33.75
2017-09-30T06:13:43.970Z,33.75
2017-09-30T06:14:43.958Z,33.75
2017-09-30T06:15:43.945Z,33.75
2017-09-30T06:16:43.933Z,33.75
2017-09-30T06:17:43.922Z,33.75
2017-09-30T06:18:44.060Z,33.75
2017-09-30T06:19:43.896Z,33.75
2017-09-30T06:20:43.887Z,33.75
2017-09-30T06:21:43.875Z,33.75
2017-09-30T06:22:43.862Z,33.75
2017-09-30T06:23:43.851Z,33.75
2017-09-30T06:24:44.141Z,33.75
2017-09-30T06:25:43.828Z,33.75
2017-09-30T06:26:43.815Z,39.38
2017-09-30T06:27:43.806Z,39.38
2017-09-30T06:28:43.792Z,39.38
2017-09-30T06:29:43.781Z,39.38
2017-09-30T06:30:44.019Z,39.38
2017-09-30T06:31:43.757Z,45.00
2017-09-30T06:32:43.757Z,45.00
2017-09-30T06:33:43.734Z,45.00
2017-09-30T06:34:43.722Z,45.00
2017-09-30T06:35:43.712Z,45.00
2017-09-30T06:36:43.851Z,50.63
2017-09-30T06:37:43.688Z,56.25
2017-09-30T06:38:43.827Z,61.88
2017-09-30T06:39:43.668Z,90.00
2017-09-30T06:40:43.802Z,78.75
2017-09-30T06:41:43.643Z,73.13
2017-09-30T06:42:43.631Z,67.50
2017-09-30T06:43:43.620Z,118.13
2017-09-30T06:44:43.608Z,123.75
2017-09-30T06:45:43.599Z,129.38
2017-09-30T06:46:43.739Z,135.00
2017-09-30T06:47:43.576Z,146.25
2017-09-30T06:48:43.567Z,151.88
2017-09-30T06:49:43.557Z,146.25
2017-09-30T06:50:43.548Z,151.88
2017-09-30T06:51:43.537Z,151.88
2017-09-30T06:52:43.679Z,151.88
2017-09-30T06:53:43.519Z,151.88
2017-09-30T06:54:43.511Z,146.25
2017-09-30T06:55:43.500Z,140.63
2017-09-30T06:56:43.492Z,140.63
2017-09-30T06:57:43.481Z,140.63
2017-09-30T06:58:43.623Z,146.25
2017-09-30T06:59:43.613Z,151.88
2017-09-30T07:00:43.455Z,151.88
2017-09-30T07:01:43.448Z,151.88
2017-09-30T07:02:43.434Z,151.88
2017-09-30T07:03:43.427Z,163.13
2017-09-30T07:04:43.422Z,163.13
2017-09-30T07:05:43.562Z,163.13
2017-09-30T07:06:43.403Z,163.13
2017-09-30T07:07:43.392Z,163.13
2017-09-30T07:08:43.385Z,163.13
2017-09-30T07:09:43.379Z,163.13
2017-09-30T07:10:43.369Z,157.50
2017-09-30T07:11:43.512Z,157.50
2017-09-30T07:12:43.353Z,157.50
2017-09-30T07:13:43.346Z,157.50
2017-09-30T07:14:43.336Z,151.88
2017-09-30T07:15:43.332Z,135.00
2017-09-30T07:16:43.322Z,135.00
2017-09-30T07:17:43.464Z,140.63
2017-09-30T07:18:43.307Z,157.50
2017-09-30T07:19:43.300Z,163.13
2017-09-30T07:20:43.291Z,163.13
2017-09-30T07:21:43.285Z,168.75
2017-09-30T07:22:43.277Z,174.38
2017-09-30T07:23:43.420Z,180.00
2017-09-30T07:24:43.263Z,196.88
2017-09-30T07:25:43.255Z,202.50
2017-09-30T07:26:43.249Z,191.25
2017-09-30T07:27:43.241Z,191.25
2017-09-30T07:28:43.386Z,202.50
2017-09-30T07:29:43.377Z,191.25
2017-09-30T07:30:43.222Z,157.50
2017-09-30T07:31:43.212Z,151.88
2017-09-30T07:32:43.206Z,163.13
2017-09-30T07:33:43.197Z,168.75
2017-09-30T07:34:43.190Z,196.88
2017-09-30T07:35:43.341Z,196.88
2017-09-30T07:36:43.327Z,196.88
2017-09-30T07:37:43.176Z,180.00
2017-09-30T07:38:43.162Z,168.75
2017-09-30T07:39:43.156Z,174.38
2017-09-30T07:40:43.147Z,191.25
2017-09-30T07:41:43.340Z,208.13
2017-09-30T07:42:43.140Z,202.50
2017-09-30T07:43:43.126Z,202.50
2017-09-30T07:44:43.124Z,196.88
2017-09-30T07:45:43.112Z,191.25
2017-09-30T07:46:43.105Z,168.75
2017-09-30T07:47:43.249Z,163.13
2017-09-30T07:48:43.092Z,157.50
2017-09-30T07:49:43.088Z,140.63
2017-09-30T07:50:43.080Z,123.75
2017-09-30T07:51:43.071Z,112.50
2017-09-30T07:52:43.065Z,118.13
2017-09-30T07:53:43.208Z,146.25
2017-09-30T07:54:43.201Z,174.38
2017-09-30T07:55:43.043Z,185.63
2017-09-30T07:56:43.037Z,225.00
2017-09-30T07:57:43.029Z,253.13
2017-09-30T07:58:43.022Z,281.25
2017-09-30T07:59:43.165Z,298.13
2017-09-30T08:00:43.009Z,303.75
2017-09-30T08:01:43.002Z,315.00
2017-09-30T08:02:42.992Z,337.50
2017-09-30T08:03:42.989Z,348.75
2017-09-30T08:04:42.984Z,376.88
2017-09-30T08:05:43.175Z,382.50
2017-09-30T08:06:42.968Z,393.75
2017-09-30T08:07:42.960Z,421.88
2017-09-30T08:08:42.955Z,416.25
2017-09-30T08:09:42.949Z,438.75
2017-09-30T08:10:42.942Z,466.88
2017-09-30T08:11:43.087Z,478.13
2017-09-30T08:12:42.931Z,495.00
2017-09-30T08:13:42.924Z,478.13
2017-09-30T08:14:42.917Z,450.00
2017-09-30T08:15:42.912Z,410.63
2017-09-30T08:16:42.905Z,405.00
2017-09-30T08:17:43.051Z,523.13
2017-09-30T08:18:42.893Z,658.13
2017-09-30T08:19:42.887Z,472.50
2017-09-30T08:20:42.881Z,534.38
2017-09-30T08:21:42.875Z,736.88
2017-09-30T08:22:42.869Z,641.25
2017-09-30T08:23:43.016Z,618.75
2017-09-30T08:24:42.857Z,810.00
2017-09-30T08:25:42.855Z,753.75
2017-09-30T08:26:42.847Z,714.38
2017-09-30T08:27:42.840Z,838.13
2017-09-30T08:28:42.836Z,1080.00
2017-09-30T08:29:42.980Z,1445.63
2017-09-30T08:30:42.824Z,3656.25
2017-09-30T08:31:42.818Z,3864.38
2017-09-30T08:32:42.815Z,3982.50
2017-09-30T08:33:42.858Z,3948.75
2017-09-30T08:34:42.854Z,3841.88
2017-09-30T08:35:42.954Z,3836.25
2017-09-30T08:36:42.801Z,3960.00
2017-09-30T08:37:42.800Z,3847.50
2017-09-30T08:38:42.798Z,2953.13
2017-09-30T08:39:42.801Z,2801.25
2017-09-30T08:40:42.801Z,3436.88
2017-09-30T08:41:42.953Z,3425.63
2017-09-30T08:42:42.803Z,2655.00
2017-09-30T08:43:42.805Z,3425.63
2017-09-30T08:44:42.809Z,3183.75
2017-09-30T08:45:42.812Z,3386.25
2017-09-30T08:46:42.813Z,4010.63
2017-09-30T08:47:42.967Z,3515.63
2017-09-30T08:48:42.819Z,2688.75
2017-09-30T08:49:42.825Z,3600.00
2017-09-30T08:50:42.829Z,1878.75
2017-09-30T08:51:42.833Z,2430.00
2017-09-30T08:52:42.841Z,4100.63
2017-09-30T08:53:43.068Z,4016.25
2017-09-30T08:54:42.848Z,4224.38
2017-09-30T08:55:42.856Z,4044.38
2017-09-30T08:56:42.860Z,3813.75
2017-09-30T08:57:42.865Z,2047.50
2017-09-30T08:58:42.872Z,2553.75
2017-09-30T08:59:43.030Z,3549.38
2017-09-30T09:00:42.883Z,4050.00
2017-09-30T09:01:43.042Z,3960.00
2017-09-30T09:02:42.897Z,4100.63
2017-09-30T09:03:42.905Z,3735.00
2017-09-30T09:04:42.912Z,3127.50
2017-09-30T09:05:43.132Z,3780.00
2017-09-30T09:06:42.924Z,2801.25
2017-09-30T09:07:42.947Z,1760.63
2017-09-30T09:08:42.937Z,871.88
2017-09-30T09:09:42.947Z,478.13
2017-09-30T09:10:42.948Z,461.25
2017-09-30T09:11:43.105Z,466.88
2017-09-30T09:12:42.960Z,455.63
2017-09-30T09:13:42.965Z,466.88
2017-09-30T09:14:42.970Z,466.88
2017-09-30T09:15:42.975Z,466.88
2017-09-30T09:16:42.978Z,472.50
2017-09-30T09:17:43.134Z,450.00
2017-09-30T09:18:42.986Z,421.88
2017-09-30T09:19:42.992Z,360.00
2017-09-30T09:20:42.995Z,348.75
2017-09-30T09:21:42.998Z,472.50
2017-09-30T09:22:43.000Z,348.75
2017-09-30T09:23:43.153Z,331.88
2017-09-30T09:24:43.006Z,281.25
2017-09-30T09:25:43.007Z,264.38
2017-09-30T09:26:43.007Z,253.13
2017-09-30T09:27:43.011Z,253.13
2017-09-30T09:28:43.026Z,253.13
2017-09-30T09:29:43.161Z,241.88
2017-09-30T09:30:43.009Z,247.50
2017-09-30T09:31:43.010Z,247.50
2017-09-30T09:32:43.008Z,247.50
2017-09-30T09:33:43.008Z,247.50
2017-09-30T09:34:43.010Z,241.88
2017-09-30T09:35:43.156Z,236.25
2017-09-30T09:36:43.028Z,230.63
2017-09-30T09:37:43.030Z,219.38
2017-09-30T09:38:43.004Z,219.38
2017-09-30T09:39:43.146Z,219.38
2017-09-30T09:40:42.995Z,219.38
2017-09-30T09:41:43.141Z,219.38
2017-09-30T09:42:42.988Z,213.75
2017-09-30T09:43:42.987Z,208.13
2017-09-30T09:44:42.981Z,208.13
2017-09-30T09:45:42.980Z,213.75
2017-09-30T09:46:42.974Z,219.38
2017-09-30T09:47:43.117Z,230.63
2017-09-30T09:48:42.965Z,236.25
2017-09-30T09:49:42.962Z,298.13
2017-09-30T09:50:43.107Z,275.63
2017-09-30T09:51:42.954Z,326.25
2017-09-30T09:52:42.950Z,331.88
2017-09-30T09:53:43.095Z,337.50
2017-09-30T09:54:42.940Z,309.38
2017-09-30T09:55:42.936Z,320.63
2017-09-30T09:56:42.931Z,309.38
2017-09-30T09:57:42.926Z,292.50
2017-09-30T09:58:42.922Z,286.88
2017-09-30T09:59:43.141Z,286.88
2017-09-30T10:00:42.946Z,281.25
2017-09-30T10:01:42.910Z,258.75
2017-09-30T10:02:42.905Z,264.38
2017-09-30T10:03:42.898Z,253.13
2017-09-30T10:04:42.896Z,241.88
2017-09-30T10:05:43.140Z,241.88
2017-09-30T10:06:42.884Z,253.13
2017-09-30T10:07:42.881Z,270.00
2017-09-30T10:08:42.874Z,270.00
2017-09-30T10:09:42.872Z,270.00
2017-09-30T10:10:42.867Z,270.00
2017-09-30T10:11:43.012Z,270.00
2017-09-30T10:12:42.858Z,281.25
2017-09-30T10:13:42.852Z,298.13
2017-09-30T10:14:42.850Z,292.50
2017-09-30T10:15:42.842Z,270.00
2017-09-30T10:16:42.837Z,253.13
2017-09-30T10:17:43.134Z,258.75
2017-09-30T10:18:42.829Z,270.00
2017-09-30T10:19:42.823Z,275.63
2017-09-30T10:20:42.821Z,281.25
2017-09-30T10:21:42.816Z,286.88
2017-09-30T10:22:42.813Z,303.75
2017-09-30T10:23:43.106Z,326.25
2017-09-30T10:24:42.803Z,331.88
2017-09-30T10:25:42.797Z,326.25
2017-09-30T10:26:42.791Z,320.63
2017-09-30T10:27:42.789Z,320.63
2017-09-30T10:28:42.785Z,337.50
2017-09-30T10:29:42.929Z,354.38
2017-09-30T10:30:43.076Z,337.50
2017-09-30T10:31:42.771Z,320.63
2017-09-30T10:32:42.767Z,315.00
2017-09-30T10:33:42.761Z,298.13
2017-09-30T10:34:42.757Z,275.63
2017-09-30T10:35:43.006Z,264.38
2017-09-30T10:36:42.748Z,247.50
2017-09-30T10:37:42.745Z,236.25
2017-09-30T10:38:42.739Z,225.00
2017-09-30T10:39:42.734Z,213.75
2017-09-30T10:40:42.732Z,208.13
2017-09-30T10:41:42.876Z,208.13
2017-09-30T10:42:42.721Z,208.13
2017-09-30T10:43:42.717Z,208.13
2017-09-30T10:44:42.714Z,213.75
2017-09-30T10:45:42.709Z,219.38
2017-09-30T10:46:42.704Z,219.38
2017-09-30T10:47:42.849Z,219.38
2017-09-30T10:48:42.696Z,230.63
2017-09-30T10:49:42.690Z,230.63
2017-09-30T10:50:42.684Z,208.13
2017-09-30T10:51:42.681Z,196.88
2017-09-30T10:52:42.677Z,196.88
2017-09-30T10:53:42.825Z,213.75
2017-09-30T10:54:42.667Z,225.00
2017-09-30T10:55:42.663Z,219.38
2017-09-30T10:56:42.658Z,225.00
2017-09-30T10:57:42.653Z,219.38
2017-09-30T10:58:42.648Z,225.00
2017-09-30T10:59:42.798Z,230.63
2017-09-30T11:00:42.639Z,230.63
2017-09-30T11:01:42.635Z,230.63
2017-09-30T11:02:42.930Z,230.63
2017-09-30T11:03:42.626Z,225.00
2017-09-30T11:04:42.622Z,225.00
2017-09-30T11:05:42.867Z,225.00
2017-09-30T11:06:42.611Z,208.13
2017-09-30T11:07:42.607Z,219.38
2017-09-30T11:08:42.602Z,213.75
2017-09-30T11:09:42.597Z,208.13
2017-09-30T11:10:42.593Z,213.75
2017-09-30T11:11:42.889Z,202.50
2017-09-30T11:12:42.584Z,208.13
2017-09-30T11:13:42.581Z,191.25
2017-09-30T11:14:42.574Z,202.50
2017-09-30T11:15:42.721Z,180.00
2017-09-30T11:16:42.816Z,168.75
2017-09-30T11:17:42.561Z,163.13
2017-09-30T11:18:42.554Z,174.38
2017-09-30T11:19:42.551Z,196.88
2017-09-30T11:20:42.696Z,202.50
2017-09-30T11:21:42.543Z,202.50
2017-09-30T11:22:42.538Z,191.25
2017-09-30T11:23:42.533Z,208.13
2017-09-30T11:24:42.528Z,208.13
2017-09-30T11:25:42.533Z,213.75
2017-09-30T11:26:42.818Z,202.50
2017-09-30T11:27:42.517Z,208.13
2017-09-30T11:28:42.511Z,208.13
2017-09-30T11:29:42.655Z,213.75
2017-09-30T11:30:42.543Z,208.13
2017-09-30T11:31:42.547Z,208.13
2017-09-30T11:32:42.781Z,208.13
2017-09-30T11:33:42.521Z,213.75
2017-09-30T11:34:42.501Z,213.75
2017-09-30T11:35:42.498Z,219.38
2017-09-30T11:36:42.502Z,230.63
2017-09-30T11:37:42.501Z,236.25
2017-09-30T11:38:42.690Z,241.88
2017-09-30T11:39:42.504Z,241.88
2017-09-30T11:40:42.479Z,236.25
2017-09-30T11:41:42.481Z,230.63
2017-09-30T11:42:42.521Z,236.25
2017-09-30T11:43:42.442Z,236.25
2017-09-30T11:44:42.689Z,219.38
2017-09-30T11:45:42.457Z,225.00
2017-09-30T11:46:42.460Z,225.00
2017-09-30T11:47:42.478Z,230.63
2017-09-30T11:48:42.457Z,219.38
2017-09-30T11:49:42.435Z,230.63
2017-09-30T11:50:42.632Z,236.25
2017-09-30T11:51:42.722Z,236.25
2017-09-30T11:52:42.456Z,236.25
2017-09-30T11:53:42.442Z,236.25
2017-09-30T11:54:42.461Z,236.25
2017-09-30T11:55:42.457Z,236.25
2017-09-30T11:56:42.457Z,219.38
2017-09-30T11:57:42.758Z,219.38
2017-09-30T11:58:42.414Z,236.25
2017-09-30T11:59:42.415Z,225.00
2017-09-30T12:00:42.420Z,225.00
2017-09-30T12:01:42.418Z,225.00
2017-09-30T12:02:42.376Z,225.00
2017-09-30T12:03:42.606Z,225.00
2017-09-30T12:04:42.395Z,225.00
2017-09-30T12:05:42.434Z,219.38
2017-09-30T12:06:42.394Z,219.38
2017-09-30T12:07:42.399Z,213.75
2017-09-30T12:08:42.356Z,208.13
2017-09-30T12:09:42.651Z,208.13
2017-09-30T12:10:42.382Z,219.38
2017-09-30T12:11:42.335Z,208.13
2017-09-30T12:12:42.393Z,213.75
2017-09-30T12:13:42.733Z,219.38
2017-09-30T12:14:42.334Z,219.38
2017-09-30T12:15:42.715Z,219.38
2017-09-30T12:16:42.354Z,219.38
2017-09-30T12:17:42.353Z,219.38
2017-09-30T12:18:42.332Z,219.38
2017-09-30T12:19:42.349Z,219.38
2017-09-30T12:20:42.331Z,219.38
2017-09-30T12:21:42.520Z,202.50
2017-09-30T12:22:42.314Z,208.13
2017-09-30T12:23:42.291Z,213.75
2017-09-30T12:24:42.288Z,213.75
2017-09-30T12:25:42.500Z,208.13
2017-09-30T12:26:42.288Z,202.50
2017-09-30T12:27:42.613Z,196.88
2017-09-30T12:28:42.271Z,191.25
2017-09-30T12:29:42.290Z,191.25
2017-09-30T12:30:42.287Z,191.25
2017-09-30T12:31:42.290Z,185.63
2017-09-30T12:32:42.270Z,180.00
2017-09-30T12:33:42.570Z,185.63
2017-09-30T12:34:42.266Z,174.38
2017-09-30T12:35:42.286Z,168.75
2017-09-30T12:36:42.246Z,163.13
2017-09-30T12:37:42.220Z,151.88
2017-09-30T12:38:42.227Z,146.25
2017-09-30T12:39:42.545Z,157.50
2017-09-30T12:40:42.224Z,151.88
2017-09-30T12:41:42.227Z,151.88
2017-09-30T12:42:42.227Z,151.88
2017-09-30T12:43:42.207Z,157.50
2017-09-30T12:44:42.248Z,163.13
2017-09-30T12:45:42.437Z,163.13
2017-09-30T12:46:42.270Z,163.13
2017-09-30T12:47:42.396Z,163.13
2017-09-30T12:48:42.186Z,163.13
2017-09-30T12:49:42.168Z,163.13
2017-09-30T12:50:42.223Z,140.63